San Rafael — WCW8517 — position and weather

sailwx.info

Track history (hours):
 
Tides and Currents Weather Stations Pressure Air Temp Water Temp Dewpoint Dewpoint Depression Visibility Wind Speed Wind Dir Waves Ship Positions

San Rafael

Owner: BUFFALO MARINE SERVICE INC, HOUSTON, TX. More information available from US FCC via Universal Licensing System and Coast Guard Vessel Documentation Center.

Last reported at 2017-Oct-20 00:20 UTC. Time now 2017-Oct-20 12:42 UTC.
Position N 29°32' W 094°54'.

Length 18 m.

Type: Tug. MMSI: 366941860.

Date/timePositionNaut miles runAvg speedWind from/ knotsBaromVisibWave heightAir tempDewpointWater temp
2017-Oct-20 00:20N 29°32' W 094°54'3 7.6
2017-Oct-19 23:58N 29°34' W 094°55'3 7.3
2017-Oct-19 23:30N 29°37' W 094°57'4 7.6
2017-Oct-19 23:00N 29°41' W 094°59'8 0.5
2017-Oct-19 07:10N 29°45' W 095°06'0 1.7
2017-Oct-19 07:00N 29°45' W 095°06'2 3.8
2017-Oct-19 06:22N 29°44' W 095°08'3 7.9
2017-Oct-19 05:59N 29°45' W 095°11'4 7.3
2017-Oct-19 05:28N 29°44' W 095°15'1 1.9
2017-Oct-19 04:58N 29°44' W 095°16'0 0.5
2017-Oct-19 04:30N 29°43' W 095°16'0 0.4
2017-Oct-19 03:58N 29°44' W 095°16'0 0.0
2017-Oct-19 03:30N 29°44' W 095°16'0 0.0
2017-Oct-19 03:00N 29°44' W 095°16'0 0.0
2017-Oct-19 02:30N 29°44' W 095°16'0 0.5
2017-Oct-19 02:00N 29°43' W 095°17'0 0.0
2017-Oct-19 01:30N 29°43' W 095°17'0 0.0
2017-Oct-19 00:59N 29°43' W 095°17'0 0.0
2017-Oct-19 00:30N 29°43' W 095°17'0 0.0
2017-Oct-19 00:01N 29°43' W 095°17'0 0.6
2017-Oct-18 23:30N 29°44' W 095°16'3 6.2
2017-Oct-18 22:58N 29°44' W 095°13'3 6.9
2017-Oct-18 22:30N 29°44' W 095°09'1 1.5
2017-Oct-18 22:00N 29°44' W 095°08'0 0.0
2017-Oct-18 21:30N 29°44' W 095°08'0 0.0
2017-Oct-18 21:00N 29°44' W 095°08'0 0.0
2017-Oct-18 20:28N 29°44' W 095°08'0 0.0
2017-Oct-18 20:00N 29°44' W 095°08'0 0.0
2017-Oct-18 19:30N 29°44' W 095°08'0 0.0
2017-Oct-18 19:00N 29°44' W 095°08'0 0.0
2017-Oct-18 18:30N 29°44' W 095°08'0 0.0
2017-Oct-18 18:00N 29°44' W 095°08'0 0.0
2017-Oct-18 17:30N 29°44' W 095°08'0 0.0
2017-Oct-18 17:00N 29°44' W 095°08'0 0.0
2017-Oct-18 16:30N 29°44' W 095°08'0 0.0
2017-Oct-18 16:00N 29°44' W 095°08'0 0.0
2017-Oct-18 15:30N 29°44' W 095°08'0 0.0
2017-Oct-18 15:00N 29°44' W 095°08'0 0.0
2017-Oct-18 14:00N 29°44' W 095°08'0 0.0
2017-Oct-18 13:30N 29°44' W 095°08'0 0.0
2017-Oct-18 13:00N 29°44' W 095°08'0 0.0
2017-Oct-18 12:30N 29°44' W 095°08'0 0.0
2017-Oct-18 12:01N 29°44' W 095°08'0 0.0
2017-Oct-18 11:30N 29°44' W 095°08'0 0.0
2017-Oct-18 11:00N 29°44' W 095°08'0 0.0
2017-Oct-18 10:30N 29°44' W 095°08'0 0.0
2017-Oct-18 10:00N 29°44' W 095°08'0 0.0
2017-Oct-18 09:29N 29°44' W 095°08'0 0.0
2017-Oct-18 09:00N 29°44' W 095°08'0 0.0
2017-Oct-18 08:30N 29°44' W 095°08'0 0.0
2017-Oct-18 07:58N 29°44' W 095°08'0 0.0
2017-Oct-18 07:19N 29°44' W 095°08'0 0.0
2017-Oct-18 07:00N 29°44' W 095°08'0 0.0
2017-Oct-18 06:30N 29°44' W 095°08'0 0.0
2017-Oct-18 06:01N 29°44' W 095°08'0 0.0
2017-Oct-18 05:30N 29°44' W 095°08'0 0.0
2017-Oct-18 05:01N 29°44' W 095°08'0 0.1
2017-Oct-18 04:30N 29°44' W 095°08'1 2.2
2017-Oct-18 03:59N 29°44' W 095°07'1 0.1
2017-Oct-17 16:17N 29°45' W 095°06'2 6.3
2017-Oct-17 16:00N 29°44' W 095°08'3 6.3
2017-Oct-17 15:31N 29°45' W 095°12'3 5.9
2017-Oct-17 14:59N 29°43' W 095°15'3 5.2
2017-Oct-17 14:30N 29°45' W 095°17'1 2.6
2017-Oct-17 13:59N 29°44' W 095°16'0 0.7
2017-Oct-17 13:31N 29°43' W 095°17'0 0.0
2017-Oct-17 13:00N 29°43' W 095°17'0 0.0
2017-Oct-17 12:29N 29°43' W 095°17'0 0.0
2017-Oct-17 12:00N 29°43' W 095°17'0 0.0
2017-Oct-17 11:30N 29°43' W 095°17'0 0.0
2017-Oct-17 11:00N 29°43' W 095°17'0 0.0
2017-Oct-17 10:30N 29°43' W 095°17'0 0.0
2017-Oct-17 10:00N 29°43' W 095°17'0 0.0
2017-Oct-17 09:30N 29°43' W 095°17'0 0.0
2017-Oct-17 08:59N 29°43' W 095°17'0 0.0
2017-Oct-17 08:30N 29°43' W 095°17'0 0.0
2017-Oct-17 08:00N 29°43' W 095°17'0 0.0
2017-Oct-17 07:30N 29°43' W 095°17'0 0.0
2017-Oct-17 07:00N 29°43' W 095°17'0 0.0
2017-Oct-17 06:30N 29°43' W 095°17'0 0.0
2017-Oct-17 06:00N 29°43' W 095°17'0 0.0
2017-Oct-17 05:30N 29°43' W 095°17'0 0.0
2017-Oct-17 05:00N 29°43' W 095°17'0 0.0
2017-Oct-17 04:30N 29°43' W 095°17'0 0.0
2017-Oct-17 04:00N 29°43' W 095°17'0 0.0
2017-Oct-17 03:30N 29°43' W 095°17'0 0.0
2017-Oct-17 03:00N 29°43' W 095°17'0 0.0
2017-Oct-17 02:30N 29°43' W 095°17'0 0.0
2017-Oct-17 02:00N 29°43' W 095°17'0 0.6
2017-Oct-17 01:30N 29°43' W 095°16'2 2.8
2017-Oct-17 00:52N 29°45' W 095°17'0 0.0
2017-Oct-17 00:30N 29°45' W 095°17'0 0.0
2017-Oct-17 00:00N 29°45' W 095°17'0 0.0
2017-Oct-16 23:29N 29°45' W 095°17'0 0.0
2017-Oct-16 23:00N 29°45' W 095°17'0 0.0
2017-Oct-16 22:29N 29°45' W 095°17'0 0.0
2017-Oct-16 21:59N 29°45' W 095°17'2 3.9
2017-Oct-16 21:23N 29°44' W 095°15'3 7.6
2017-Oct-16 20:57N 29°45' W 095°12'4 8.3
2017-Oct-16 20:26N 29°44' W 095°07'3 6.0
2017-Oct-16 20:00N 29°45' W 095°04'4 7.7
2017-Oct-16 19:30N 29°42' W 095°01'4 8.3
2017-Oct-16 19:00N 29°39' W 094°58'5 9.3
2017-Oct-16 18:30N 29°35' W 094°56'  
2017-Oct-13 09:26N 29°58' W 093°51'4 7.9
2017-Oct-13 08:57N 29°60' W 093°47'3 6.5
2017-Oct-13 08:26N 30°02' W 093°44'3 7.1
2017-Oct-13 08:01N 30°04' W 093°41'3 6.7
2017-Oct-13 07:31N 30°04' W 093°37'4 7.0
2017-Oct-13 07:01N 30°04' W 093°33'4 7.1
2017-Oct-13 06:31N 30°04' W 093°29'4 7.2
2017-Oct-13 06:01N 30°04' W 093°25'3 6.7
2017-Oct-13 05:30N 30°04' W 093°21'3 5.3
2017-Oct-13 05:01N 30°06' W 093°20'4 7.2
2017-Oct-13 04:30N 30°10' W 093°19'1 2.3
2017-Oct-13 04:01N 30°11' W 093°19'0 0.0
2017-Oct-13 03:30N 30°11' W 093°19'0 0.0
2017-Oct-13 03:01N 30°11' W 093°19'0 0.0
2017-Oct-13 02:30N 30°11' W 093°19'0 0.0
2017-Oct-13 02:01N 30°11' W 093°19'0 0.0
2017-Oct-13 01:31N 30°11' W 093°19'0 0.0
2017-Oct-13 01:01N 30°11' W 093°19'0 0.0
2017-Oct-13 00:31N 30°11' W 093°19'0 0.0
2017-Oct-13 00:00N 30°11' W 093°19'0 0.0
2017-Oct-12 23:30N 30°11' W 093°19'0 0.0
2017-Oct-12 23:00N 30°11' W 093°19'0 0.0
2017-Oct-12 22:31N 30°11' W 093°19'0 0.0
2017-Oct-12 22:01N 30°11' W 093°18'0 0.1
2017-Oct-12 21:30N 30°11' W 093°19'2 3.7
2017-Oct-12 21:00N 30°09' W 093°20'4 7.1
2017-Oct-12 20:31N 30°06' W 093°20'3 6.1
2017-Oct-12 20:01N 30°04' W 093°22'3 6.5
2017-Oct-12 19:30N 30°04' W 093°26'3 7.0
2017-Oct-12 19:01N 30°04' W 093°30'3 6.9
2017-Oct-12 18:31N 30°04' W 093°34'4 7.0
2017-Oct-12 18:00N 30°04' W 093°38'76 1.7
2017-Oct-10 20:13N 29°44' W 095°03'0 0.5
2017-Oct-10 19:52N 29°44' W 095°03'0 0.1
2017-Oct-10 19:30N 29°44' W 095°03'0 0.0
2017-Oct-10 19:00N 29°44' W 095°03'0 0.0
2017-Oct-10 18:30N 29°44' W 095°03'0 0.0
2017-Oct-10 17:56N 29°44' W 095°03'0 0.0
2017-Oct-10 17:30N 29°44' W 095°03'0 0.2
2017-Oct-10 16:50N 29°44' W 095°03'0 0.5
2017-Oct-10 16:30N 29°44' W 095°03'0 0.0
2017-Oct-10 15:53N 29°44' W 095°03'0 0.0
2017-Oct-10 15:28N 29°44' W 095°03'0 0.0
2017-Oct-10 14:49N 29°44' W 095°03'0 0.1
2017-Oct-10 13:59N 29°44' W 095°03'0 0.1
2017-Oct-10 12:30N 29°44' W 095°03'0 0.0
2017-Oct-10 12:00N 29°44' W 095°03'0 0.0
2017-Oct-10 11:30N 29°44' W 095°03'0 0.0
2017-Oct-10 10:59N 29°44' W 095°03'0 0.0
2017-Oct-10 10:30N 29°44' W 095°03'0 0.0
2017-Oct-10 09:56N 29°44' W 095°03'0 0.0
2017-Oct-10 09:30N 29°44' W 095°03'0 0.0
2017-Oct-10 09:00N 29°44' W 095°03'0 0.0
2017-Oct-10 08:30N 29°44' W 095°03'0 0.0
2017-Oct-10 08:00N 29°44' W 095°03'0 0.0
2017-Oct-10 07:30N 29°44' W 095°03'0 0.1
2017-Oct-10 06:58N 29°44' W 095°03'0 0.1
2017-Oct-10 05:46N 29°44' W 095°03'0 0.0
2017-Oct-10 05:24N 29°44' W 095°03'0 0.0
2017-Oct-10 03:55N 29°44' W 095°03'0 0.0
2017-Oct-10 03:22N 29°44' W 095°03'0 0.0
2017-Oct-10 02:53N 29°44' W 095°03'0 0.0
2017-Oct-10 02:29N 29°44' W 095°03'0 0.0
2017-Oct-10 01:47N 29°44' W 095°03'0 0.0
2017-Oct-10 01:11N 29°44' W 095°03'0 0.2
2017-Oct-10 00:43N 29°44' W 095°03'1 3.7
2017-Oct-10 00:28N 29°44' W 095°02'  
Track history (hours):
 
Tides and Currents Weather Stations Pressure Air Temp Water Temp Dewpoint Dewpoint Depression Visibility Wind Speed Wind Dir Waves Ship Positions

San Rafael

Owner: BUFFALO MARINE SERVICE INC, HOUSTON, TX. More information available from US FCC via Universal Licensing System and Coast Guard Vessel Documentation Center.

Last reported at 2017-Oct-20 00:20 UTC. Time now 2017-Oct-20 12:42 UTC.
Position N 29°32' W 094°54'.

Length 18 m.

Type: Tug. MMSI: 366941860.

Date/timePositionNaut miles runAvg speedWind from/ knotsBaromVisibWave heightAir tempDewpointWater temp
2017-Oct-20 00:20N 29°32' W 094°54'3 7.6
2017-Oct-19 23:58N 29°34' W 094°55'3 7.3
2017-Oct-19 23:30N 29°37' W 094°57'4 7.6
2017-Oct-19 23:00N 29°41' W 094°59'8 0.5
2017-Oct-19 07:10N 29°45' W 095°06'0 1.7
2017-Oct-19 07:00N 29°45' W 095°06'2 3.8
2017-Oct-19 06:22N 29°44' W 095°08'3 7.9
2017-Oct-19 05:59N 29°45' W 095°11'4 7.3
2017-Oct-19 05:28N 29°44' W 095°15'1 1.9
2017-Oct-19 04:58N 29°44' W 095°16'0 0.5
2017-Oct-19 04:30N 29°43' W 095°16'0 0.4
2017-Oct-19 03:58N 29°44' W 095°16'0 0.0
2017-Oct-19 03:30N 29°44' W 095°16'0 0.0
2017-Oct-19 03:00N 29°44' W 095°16'0 0.0
2017-Oct-19 02:30N 29°44' W 095°16'0 0.5
2017-Oct-19 02:00N 29°43' W 095°17'0 0.0
2017-Oct-19 01:30N 29°43' W 095°17'0 0.0
2017-Oct-19 00:59N 29°43' W 095°17'0 0.0
2017-Oct-19 00:30N 29°43' W 095°17'0 0.0
2017-Oct-19 00:01N 29°43' W 095°17'0 0.6
2017-Oct-18 23:30N 29°44' W 095°16'3 6.2
2017-Oct-18 22:58N 29°44' W 095°13'3 6.9
2017-Oct-18 22:30N 29°44' W 095°09'1 1.5
2017-Oct-18 22:00N 29°44' W 095°08'0 0.0
2017-Oct-18 21:30N 29°44' W 095°08'0 0.0
2017-Oct-18 21:00N 29°44' W 095°08'0 0.0
2017-Oct-18 20:28N 29°44' W 095°08'0 0.0
2017-Oct-18 20:00N 29°44' W 095°08'0 0.0
2017-Oct-18 19:30N 29°44' W 095°08'0 0.0
2017-Oct-18 19:00N 29°44' W 095°08'0 0.0
2017-Oct-18 18:30N 29°44' W 095°08'0 0.0
2017-Oct-18 18:00N 29°44' W 095°08'0 0.0
2017-Oct-18 17:30N 29°44' W 095°08'0 0.0
2017-Oct-18 17:00N 29°44' W 095°08'0 0.0
2017-Oct-18 16:30N 29°44' W 095°08'0 0.0
2017-Oct-18 16:00N 29°44' W 095°08'0 0.0
2017-Oct-18 15:30N 29°44' W 095°08'0 0.0
2017-Oct-18 15:00N 29°44' W 095°08'0 0.0
2017-Oct-18 14:00N 29°44' W 095°08'0 0.0
2017-Oct-18 13:30N 29°44' W 095°08'0 0.0
2017-Oct-18 13:00N 29°44' W 095°08'0 0.0
2017-Oct-18 12:30N 29°44' W 095°08'0 0.0
2017-Oct-18 12:01N 29°44' W 095°08'0 0.0
2017-Oct-18 11:30N 29°44' W 095°08'0 0.0
2017-Oct-18 11:00N 29°44' W 095°08'0 0.0
2017-Oct-18 10:30N 29°44' W 095°08'0 0.0
2017-Oct-18 10:00N 29°44' W 095°08'0 0.0
2017-Oct-18 09:29N 29°44' W 095°08'0 0.0
2017-Oct-18 09:00N 29°44' W 095°08'0 0.0
2017-Oct-18 08:30N 29°44' W 095°08'0 0.0
2017-Oct-18 07:58N 29°44' W 095°08'0 0.0
2017-Oct-18 07:19N 29°44' W 095°08'0 0.0
2017-Oct-18 07:00N 29°44' W 095°08'0 0.0
2017-Oct-18 06:30N 29°44' W 095°08'0 0.0
2017-Oct-18 06:01N 29°44' W 095°08'0 0.0
2017-Oct-18 05:30N 29°44' W 095°08'0 0.0
2017-Oct-18 05:01N 29°44' W 095°08'0 0.1
2017-Oct-18 04:30N 29°44' W 095°08'1 2.2
2017-Oct-18 03:59N 29°44' W 095°07'1 0.1
2017-Oct-17 16:17N 29°45' W 095°06'2 6.3
2017-Oct-17 16:00N 29°44' W 095°08'3 6.3
2017-Oct-17 15:31N 29°45' W 095°12'3 5.9
2017-Oct-17 14:59N 29°43' W 095°15'3 5.2
2017-Oct-17 14:30N 29°45' W 095°17'1 2.6
2017-Oct-17 13:59N 29°44' W 095°16'0 0.7
2017-Oct-17 13:31N 29°43' W 095°17'0 0.0
2017-Oct-17 13:00N 29°43' W 095°17'0 0.0
2017-Oct-17 12:29N 29°43' W 095°17'0 0.0
2017-Oct-17 12:00N 29°43' W 095°17'0 0.0
2017-Oct-17 11:30N 29°43' W 095°17'0 0.0
2017-Oct-17 11:00N 29°43' W 095°17'0 0.0
2017-Oct-17 10:30N 29°43' W 095°17'0 0.0
2017-Oct-17 10:00N 29°43' W 095°17'0 0.0
2017-Oct-17 09:30N 29°43' W 095°17'0 0.0
2017-Oct-17 08:59N 29°43' W 095°17'0 0.0
2017-Oct-17 08:30N 29°43' W 095°17'0 0.0
2017-Oct-17 08:00N 29°43' W 095°17'0 0.0
2017-Oct-17 07:30N 29°43' W 095°17'0 0.0
2017-Oct-17 07:00N 29°43' W 095°17'0 0.0
2017-Oct-17 06:30N 29°43' W 095°17'0 0.0
2017-Oct-17 06:00N 29°43' W 095°17'0 0.0
2017-Oct-17 05:30N 29°43' W 095°17'0 0.0
2017-Oct-17 05:00N 29°43' W 095°17'0 0.0
2017-Oct-17 04:30N 29°43' W 095°17'0 0.0
2017-Oct-17 04:00N 29°43' W 095°17'0 0.0
2017-Oct-17 03:30N 29°43' W 095°17'0 0.0
2017-Oct-17 03:00N 29°43' W 095°17'0 0.0
2017-Oct-17 02:30N 29°43' W 095°17'0 0.0
2017-Oct-17 02:00N 29°43' W 095°17'0 0.6
2017-Oct-17 01:30N 29°43' W 095°16'2 2.8
2017-Oct-17 00:52N 29°45' W 095°17'0 0.0
2017-Oct-17 00:30N 29°45' W 095°17'0 0.0
2017-Oct-17 00:00N 29°45' W 095°17'0 0.0
2017-Oct-16 23:29N 29°45' W 095°17'0 0.0
2017-Oct-16 23:00N 29°45' W 095°17'0 0.0
2017-Oct-16 22:29N 29°45' W 095°17'0 0.0
2017-Oct-16 21:59N 29°45' W 095°17'2 3.9
2017-Oct-16 21:23N 29°44' W 095°15'3 7.6
2017-Oct-16 20:57N 29°45' W 095°12'4 8.3
2017-Oct-16 20:26N 29°44' W 095°07'3 6.0
2017-Oct-16 20:00N 29°45' W 095°04'4 7.7
2017-Oct-16 19:30N 29°42' W 095°01'4 8.3
2017-Oct-16 19:00N 29°39' W 094°58'5 9.3
2017-Oct-16 18:30N 29°35' W 094°56'  
2017-Oct-13 09:26N 29°58' W 093°51'4 7.9
2017-Oct-13 08:57N 29°60' W 093°47'3 6.5
2017-Oct-13 08:26N 30°02' W 093°44'3 7.1
2017-Oct-13 08:01N 30°04' W 093°41'3 6.7
2017-Oct-13 07:31N 30°04' W 093°37'4 7.0
2017-Oct-13 07:01N 30°04' W 093°33'4 7.1
2017-Oct-13 06:31N 30°04' W 093°29'4 7.2
2017-Oct-13 06:01N 30°04' W 093°25'3 6.7
2017-Oct-13 05:30N 30°04' W 093°21'3 5.3
2017-Oct-13 05:01N 30°06' W 093°20'4 7.2
2017-Oct-13 04:30N 30°10' W 093°19'1 2.3
2017-Oct-13 04:01N 30°11' W 093°19'0 0.0
2017-Oct-13 03:30N 30°11' W 093°19'0 0.0
2017-Oct-13 03:01N 30°11' W 093°19'0 0.0
2017-Oct-13 02:30N 30°11' W 093°19'0 0.0
2017-Oct-13 02:01N 30°11' W 093°19'0 0.0
2017-Oct-13 01:31N 30°11' W 093°19'0 0.0
2017-Oct-13 01:01N 30°11' W 093°19'0 0.0
2017-Oct-13 00:31N 30°11' W 093°19'0 0.0
2017-Oct-13 00:00N 30°11' W 093°19'0 0.0
2017-Oct-12 23:30N 30°11' W 093°19'0 0.0
2017-Oct-12 23:00N 30°11' W 093°19'0 0.0
2017-Oct-12 22:31N 30°11' W 093°19'0 0.0
2017-Oct-12 22:01N 30°11' W 093°18'0 0.1
2017-Oct-12 21:30N 30°11' W 093°19'2 3.7
2017-Oct-12 21:00N 30°09' W 093°20'4 7.1
2017-Oct-12 20:31N 30°06' W 093°20'3 6.1
2017-Oct-12 20:01N 30°04' W 093°22'3 6.5
2017-Oct-12 19:30N 30°04' W 093°26'3 7.0
2017-Oct-12 19:01N 30°04' W 093°30'3 6.9
2017-Oct-12 18:31N 30°04' W 093°34'4 7.0
2017-Oct-12 18:00N 30°04' W 093°38'76 1.7
2017-Oct-10 20:13N 29°44' W 095°03'0 0.5
2017-Oct-10 19:52N 29°44' W 095°03'0 0.1
2017-Oct-10 19:30N 29°44' W 095°03'0 0.0
2017-Oct-10 19:00N 29°44' W 095°03'0 0.0
2017-Oct-10 18:30N 29°44' W 095°03'0 0.0
2017-Oct-10 17:56N 29°44' W 095°03'0 0.0
2017-Oct-10 17:30N 29°44' W 095°03'0 0.2
2017-Oct-10 16:50N 29°44' W 095°03'0 0.5
2017-Oct-10 16:30N 29°44' W 095°03'0 0.0
2017-Oct-10 15:53N 29°44' W 095°03'0 0.0
2017-Oct-10 15:28N 29°44' W 095°03'0 0.0
2017-Oct-10 14:49N 29°44' W 095°03'0 0.1
2017-Oct-10 13:59N 29°44' W 095°03'0 0.1
2017-Oct-10 12:30N 29°44' W 095°03'0 0.0
2017-Oct-10 12:00N 29°44' W 095°03'0 0.0
2017-Oct-10 11:30N 29°44' W 095°03'0 0.0
2017-Oct-10 10:59N 29°44' W 095°03'0 0.0
2017-Oct-10 10:30N 29°44' W 095°03'0 0.0
2017-Oct-10 09:56N 29°44' W 095°03'0 0.0
2017-Oct-10 09:30N 29°44' W 095°03'0 0.0
2017-Oct-10 09:00N 29°44' W 095°03'0 0.0
2017-Oct-10 08:30N 29°44' W 095°03'0 0.0
2017-Oct-10 08:00N 29°44' W 095°03'0 0.0
2017-Oct-10 07:30N 29°44' W 095°03'0 0.1
2017-Oct-10 06:58N 29°44' W 095°03'0 0.1
2017-Oct-10 05:46N 29°44' W 095°03'0 0.0
2017-Oct-10 05:24N 29°44' W 095°03'0 0.0
2017-Oct-10 03:55N 29°44' W 095°03'0 0.0
2017-Oct-10 03:22N 29°44' W 095°03'0 0.0
2017-Oct-10 02:53N 29°44' W 095°03'0 0.0
2017-Oct-10 02:29N 29°44' W 095°03'0 0.0
2017-Oct-10 01:47N 29°44' W 095°03'0 0.0
2017-Oct-10 01:11N 29°44' W 095°03'0 0.2
2017-Oct-10 00:43N 29°44' W 095°03'1 3.7
2017-Oct-10 00:28N 29°44' W 095°02'  

Dump ship's entire track history